Time;durP1;ratioP1;P1;durP2;ratioP2;P2;SDS_P1;SDS_P2;PMS_P1;PMS_P2;Temp;Humidity;BMP_temperature;BMP_pressure;BME280_temperature;BME280_humidity;BME280_pressure;Samples;Min_cycle;Max_cycle;Signal;HPM_P1;HPM_P2
2022/07/02 00:00:22;;;;;;;5.12;3.85;;;;;;;18.27;70.66;99880.24;1813935;78;21028;-76
2022/07/02 00:02:50;;;;;;;10.05;4.30;;;;;;;18.25;70.63;99871.98;1813828;79;21106;-76
2022/07/02 00:05:20;;;;;;;9.88;4.95;;;;;;;18.24;70.57;99877.80;1813683;78;21019;-76
2022/07/02 00:07:46;;;;;;;7.60;4.70;;;;;;;18.22;70.51;99873.49;1814032;78;21169;-76
2022/07/02 00:10:13;;;;;;;4.92;4.40;;;;;;;18.17;70.33;99877.31;1813647;79;21133;-76
2022/07/02 00:12:40;;;;;;;8.80;4.78;;;;;;;18.14;70.22;99884.14;1813595;79;21007;-76
2022/07/02 00:15:09;;;;;;;7.83;4.40;;;;;;;18.12;70.44;99879.39;1813613;79;21019;-76
2022/07/02 00:17:38;;;;;;;7.50;4.50;;;;;;;18.10;70.56;99877.75;1813956;79;21162;-76
2022/07/02 00:20:06;;;;;;;7.95;4.80;;;;;;;18.07;70.88;99880.14;1813777;78;21137;-76
2022/07/02 00:22:33;;;;;;;8.55;4.37;;;;;;;18.05;71.06;99882.02;1813940;78;21090;-76
2022/07/02 00:25:01;;;;;;;8.50;4.37;;;;;;;18.03;71.07;99887.06;1813701;78;21082;-76
2022/07/02 00:27:32;;;;;;;7.85;4.95;;;;;;;17.98;71.07;99890.84;1813719;78;21102;-77
2022/07/02 00:30:00;;;;;;;5.15;4.58;;;;;;;17.95;71.24;99896.83;1813093;78;22246;-76
2022/07/02 00:32:29;;;;;;;9.50;4.50;;;;;;;17.94;71.37;99892.47;1813620;79;21063;-76
2022/07/02 00:34:57;;;;;;;5.55;4.25;;;;;;;17.91;71.58;99896.64;1814007;78;21579;-76
2022/07/02 00:37:27;;;;;;;5.53;4.42;;;;;;;17.90;71.67;99901.57;1813634;79;21023;-76
2022/07/02 00:39:54;;;;;;;4.95;3.98;;;;;;;17.87;71.51;99891.09;1811108;78;21078;-76
2022/07/02 00:42:24;;;;;;;6.37;3.98;;;;;;;17.88;71.61;99894.16;1787147;80;21012;-76
2022/07/02 00:44:51;;;;;;;3.98;3.67;;;;;;;17.88;71.61;99884.84;1786967;80;21976;-76
2022/07/02 00:47:20;;;;;;;8.68;3.90;;;;;;;17.87;71.48;99895.97;1787132;80;21744;-76
2022/07/02 00:49:46;;;;;;;3.83;3.52;;;;;;;17.83;71.29;99889.91;1786888;80;21016;-76
2022/07/02 00:52:12;;;;;;;4.87;3.40;;;;;;;17.81;71.18;99891.81;1787216;80;20988;-76
2022/07/02 00:54:39;;;;;;;5.92;4.03;;;;;;;17.81;71.18;99892.30;1786784;80;21056;-75
2022/07/02 00:57:06;;;;;;;3.80;3.50;;;;;;;17.80;71.29;99900.76;1787058;80;21885;-75
2022/07/02 00:59:33;;;;;;;4.37;3.85;;;;;;;17.80;71.35;99901.21;1786713;80;21108;-76
2022/07/02 01:02:00;;;;;;;9.50;3.33;;;;;;;17.80;71.37;99892.78;1786825;80;20981;-76
2022/07/02 01:04:29;;;;;;;3.50;3.20;;;;;;;17.82;71.08;99904.18;1787116;80;21083;-76
2022/07/02 01:07:06;;;;;;;3.30;3.00;;;;;;;17.81;71.04;99902.45;1787001;80;21634;-76
2022/07/02 01:12:28;;;;;;;7.90;3.67;;;;;;;17.78;71.31;99913.28;1748584;80;22011;-76
2022/07/02 01:14:55;;;;;;;3.83;2.80;;;;;;;17.74;71.53;99917.08;1744933;81;21607;-76
2022/07/02 01:17:22;;;;;;;6.05;3.10;;;;;;;17.75;71.60;99926.78;1745207;81;21556;-75
2022/07/02 01:19:50;;;;;;;4.42;2.80;;;;;;;17.74;71.41;99919.73;1745061;81;21073;-76
2022/07/02 01:22:20;;;;;;;4.78;3.00;;;;;;;17.73;71.34;99925.99;1745228;81;21068;-76
2022/07/02 01:24:52;;;;;;;3.25;3.02;;;;;;;17.70;71.53;99919.55;1745179;81;21760;-76
2022/07/02 01:27:20;;;;;;;3.60;2.87;;;;;;;17.68;71.37;99916.09;1744670;81;21060;-76
2022/07/02 01:29:46;;;;;;;3.05;2.85;;;;;;;17.67;71.33;99919.72;1745133;81;21006;-76
2022/07/02 01:32:13;;;;;;;4.28;2.98;;;;;;;17.66;71.23;99923.31;1744868;81;20986;-76
2022/07/02 01:34:50;;;;;;;4.40;2.90;;;;;;;17.66;70.92;99928.63;1745239;82;21069;-76
2022/07/02 01:37:19;;;;;;;2.62;2.42;;;;;;;17.69;70.92;99932.94;1744259;81;21222;-77
2022/07/02 01:39:46;;;;;;;4.17;2.83;;;;;;;17.66;70.70;99932.63;1745274;82;21532;-77
2022/07/02 01:42:12;;;;;;;3.02;2.77;;;;;;;17.64;70.56;99935.85;1744862;82;21088;-76
2022/07/02 01:44:39;;;;;;;4.75;3.42;;;;;;;17.63;70.59;99931.02;1745074;81;21140;-76
2022/07/02 01:47:08;;;;;;;4.58;3.00;;;;;;;17.65;70.36;99933.55;1745024;81;21184;-76
2022/07/02 01:49:36;;;;;;;3.72;3.25;;;;;;;17.68;70.22;99929.88;1745133;81;21100;-77
2022/07/02 01:52:03;;;;;;;3.20;2.90;;;;;;;17.69;70.22;99926.28;1744876;82;21100;-76
2022/07/02 01:54:30;;;;;;;6.20;3.50;;;;;;;17.72;70.20;99928.74;1745003;82;21093;-76
2022/07/02 01:56:58;;;;;;;4.47;3.10;;;;;;;17.70;70.36;99931.52;1744938;82;21108;-76
2022/07/02 01:59:24;;;;;;;8.25;3.25;;;;;;;17.73;70.58;99941.96;1744993;81;21231;-76
2022/07/02 02:01:50;;;;;;;3.80;3.52;;;;;;;17.75;70.55;99940.09;1745442;82;21179;-76
2022/07/02 02:04:17;;;;;;;4.20;3.37;;;;;;;17.78;70.42;99943.03;1744923;81;21005;-76
2022/07/02 02:06:43;;;;;;;5.35;3.30;;;;;;;17.83;70.33;99940.48;1745264;82;21104;-76
2022/07/02 02:09:11;;;;;;;4.53;3.27;;;;;;;17.90;70.44;99948.16;1745020;82;21089;-76
2022/07/02 02:11:37;;;;;;;3.12;2.92;;;;;;;17.91;69.97;99953.88;1744969;82;21060;-76
2022/07/02 02:14:04;;;;;;;3.52;3.20;;;;;;;17.96;69.66;99959.30;1744799;82;21549;-76
2022/07/02 02:16:30;;;;;;;3.15;2.83;;;;;;;18.00;69.41;99954.66;1744936;81;21064;-76
2022/07/02 02:18:58;;;;;;;3.10;2.90;;;;;;;18.06;69.16;99955.64;1745221;81;21022;-76
2022/07/02 02:21:26;;;;;;;5.58;3.25;;;;;;;18.10;69.04;99955.83;1745010;81;21125;-76
2022/07/02 02:23:53;;;;;;;3.25;3.02;;;;;;;18.15;68.66;99959.07;1745013;81;21529;-77
2022/07/02 02:26:21;;;;;;;6.28;2.92;;;;;;;18.19;68.63;99955.78;1745026;82;21130;-76
2022/07/02 02:28:47;;;;;;;3.92;2.90;;;;;;;18.20;68.45;99958.33;1744955;81;21011;-76
2022/07/02 02:31:14;;;;;;;3.80;2.80;;;;;;;18.25;68.11;99953.22;1744877;81;21564;-76
2022/07/02 02:33:41;;;;;;;8.15;3.08;;;;;;;18.28;67.94;99949.05;1744941;81;21582;-76
2022/07/02 02:36:07;;;;;;;3.52;2.80;;;;;;;18.31;67.52;99946.20;1745159;81;20985;-76
2022/07/02 02:38:36;;;;;;;3.55;2.98;;;;;;;18.35;67.47;99950.38;1744963;81;21140;-76
2022/07/02 02:41:07;;;;;;;6.35;2.65;;;;;;;18.38;67.39;99947.54;1745060;82;20959;-76
2022/07/02 02:43:34;;;;;;;4.00;3.15;;;;;;;18.41;67.17;99947.81;1745418;82;21064;-76
2022/07/02 02:46:01;;;;;;;5.70;3.50;;;;;;;18.45;67.00;99954.69;1745186;81;21096;-76
2022/07/02 02:48:27;;;;;;;5.47;2.75;;;;;;;18.47;66.77;99953.63;1749225;80;21015;-76
2022/07/02 02:50:55;;;;;;;6.37;2.50;;;;;;;18.50;66.49;99952.12;1745005;82;21737;-77
2022/07/02 02:53:22;;;;;;;2.80;2.50;;;;;;;18.53;66.27;99952.42;1745001;81;21047;-76
2022/07/02 02:55:48;;;;;;;6.95;2.80;;;;;;;18.55;66.27;99954.02;1745098;81;21589;-76
2022/07/02 02:58:15;;;;;;;2.92;2.70;;;;;;;18.57;66.20;99958.78;1745014;81;20977;-76
2022/07/02 03:00:41;;;;;;;3.83;2.45;;;;;;;18.60;66.17;99964.90;1745547;82;21072;-76
2022/07/02 03:03:09;;;;;;;4.72;2.92;;;;;;;18.61;65.97;99966.14;1745107;82;21107;-76
2022/07/02 03:05:36;;;;;;;5.03;2.72;;;;;;;18.66;65.77;99975.16;1745134;82;21064;-76
2022/07/02 03:08:03;;;;;;;5.78;2.60;;;;;;;18.70;65.93;99978.05;1745146;81;21047;-77
2022/07/02 03:10:31;;;;;;;6.65;3.40;;;;;;;18.71;65.69;99976.63;1745257;81;21500;-76
2022/07/02 03:12:58;;;;;;;7.05;2.95;;;;;;;18.74;65.75;99976.89;1754215;81;21055;-76
2022/07/02 03:15:25;;;;;;;5.92;2.70;;;;;;;18.78;65.65;99981.09;1761505;80;21095;-76
2022/07/02 03:17:51;;;;;;;8.33;3.15;;;;;;;18.81;65.46;99981.38;1737644;81;21044;-76
2022/07/02 03:20:17;;;;;;;4.22;3.25;;;;;;;18.83;65.34;99983.04;1761210;81;21680;-76
2022/07/02 03:22:44;;;;;;;3.10;2.90;;;;;;;18.86;65.05;99988.19;1761465;80;21052;-76
2022/07/02 03:25:11;;;;;;;7.72;3.22;;;;;;;18.88;65.46;99988.95;1761247;81;20993;-76
2022/07/02 03:27:38;;;;;;;3.10;2.87;;;;;;;18.90;65.30;99992.36;1761534;81;21111;-76
2022/07/02 03:30:06;;;;;;;2.85;2.60;;;;;;;18.92;65.48;99996.27;1761109;81;21060;-76
2022/07/02 03:32:33;;;;;;;6.95;3.00;;;;;;;18.93;65.39;99990.84;1761378;81;21122;-76
2022/07/02 03:34:59;;;;;;;6.40;3.08;;;;;;;18.96;65.29;99990.27;1761348;80;21108;-76
2022/07/02 03:37:27;;;;;;;4.95;3.30;;;;;;;18.98;65.24;99990.57;1761194;80;21071;-76
2022/07/02 03:39:54;;;;;;;4.40;2.92;;;;;;;19.00;65.24;99993.99;1761428;81;21275;-76
2022/07/02 03:42:21;;;;;;;5.15;2.75;;;;;;;19.02;65.42;99994.75;1761038;80;21020;-76
2022/07/02 03:44:47;;;;;;;7.92;3.08;;;;;;;19.05;65.15;99990.56;1761455;80;21107;-75
2022/07/02 03:47:14;;;;;;;3.85;3.17;;;;;;;19.07;64.99;99989.13;1761267;81;21559;-77
2022/07/02 03:49:41;;;;;;;6.40;3.45;;;;;;;19.11;65.07;99990.64;1761283;81;21032;-77
2022/07/02 03:52:07;;;;;;;6.53;3.17;;;;;;;19.14;65.04;99993.13;1761368;81;21108;-76
2022/07/02 03:54:34;;;;;;;8.55;3.05;;;;;;;19.18;65.03;99985.33;1761169;80;21012;-77
2022/07/02 03:57:00;;;;;;;5.67;2.77;;;;;;;19.21;65.08;99987.78;1761391;81;21096;-76
2022/07/02 03:59:28;;;;;;;3.02;2.45;;;;;;;19.25;64.68;99983.98;1761109;81;21067;-76
2022/07/02 04:01:55;;;;;;;4.25;2.77;;;;;;;19.28;64.44;99981.58;1761334;81;21060;-77
2022/07/02 04:04:22;;;;;;;5.78;3.30;;;;;;;19.29;64.32;99982.81;1761282;81;21513;-76
2022/07/02 04:06:48;;;;;;;7.53;3.10;;;;;;;19.34;64.41;99988.36;1761186;80;21120;-76
2022/07/02 04:09:15;;;;;;;3.15;2.60;;;;;;;19.35;64.33;99984.71;1761258;80;21135;-76
2022/07/02 04:11:42;;;;;;;4.75;2.70;;;;;;;19.36;64.48;99979.77;1760571;81;21131;-77
2022/07/02 04:14:09;;;;;;;6.60;3.10;;;;;;;19.38;64.45;99985.86;1758258;80;21182;-76
2022/07/02 04:16:35;;;;;;;7.33;3.45;;;;;;;19.39;64.40;99988.43;1758356;81;21242;-77
2022/07/02 04:19:02;;;;;;;5.45;3.33;;;;;;;19.41;64.16;99997.67;1758666;81;22226;-76
2022/07/02 04:21:28;;;;;;;4.50;3.25;;;;;;;19.45;64.32;99996.51;1758401;80;21658;-76
2022/07/02 04:23:55;;;;;;;18.45;4.15;;;;;;;19.46;64.32;99992.90;1758388;80;21076;-76
2022/07/02 04:26:21;;;;;;;7.05;3.50;;;;;;;19.49;64.35;99996.22;1758485;81;21055;-76
2022/07/02 04:28:48;;;;;;;5.90;3.12;;;;;;;19.53;64.12;99999.55;1758502;80;21069;-77
2022/07/02 04:31:14;;;;;;;7.53;3.62;;;;;;;19.57;63.95;100004.20;1758609;81;21068;-76
2022/07/02 04:33:41;;;;;;;6.30;3.02;;;;;;;19.62;63.93;100004.80;1758472;81;21000;-77
2022/07/02 04:36:07;;;;;;;3.02;2.75;;;;;;;19.67;63.98;100008.88;1758687;80;21044;-76
2022/07/02 04:38:34;;;;;;;8.95;2.77;;;;;;;19.72;63.58;100011.25;1758553;80;21009;-77
2022/07/02 04:41:01;;;;;;;5.10;3.00;;;;;;;19.78;63.45;100013.53;1758364;81;21185;-76
2022/07/02 04:43:28;;;;;;;7.65;3.77;;;;;;;19.83;63.34;100017.25;1758621;80;21013;-77
2022/07/02 04:45:54;;;;;;;7.30;2.98;;;;;;;19.88;63.35;100024.48;1758365;81;21503;-76
2022/07/02 04:48:21;;;;;;;5.25;2.90;;;;;;;19.95;63.17;100022.27;1758641;81;21009;-77
2022/07/02 04:50:47;;;;;;;7.97;3.12;;;;;;;19.99;63.16;100031.32;1758611;81;20993;-77
2022/07/02 04:53:14;;;;;;;11.83;2.92;;;;;;;20.04;62.91;100030.53;1752729;80;21223;-76
2022/07/02 04:55:42;;;;;;;4.72;3.15;;;;;;;20.10;62.95;100032.42;1812593;79;21094;-76
2022/07/02 04:58:08;;;;;;;8.23;2.80;;;;;;;20.14;62.62;100036.13;1740960;82;21048;-76
2022/07/02 05:00:35;;;;;;;3.90;2.95;;;;;;;20.19;62.45;100038.48;1755128;81;21054;-76
2022/07/02 05:03:01;;;;;;;10.25;2.62;;;;;;;20.24;62.71;100043.06;1812286;79;22155;-76
2022/07/02 05:05:27;;;;;;;4.05;2.90;;;;;;;20.30;62.65;100047.13;1740657;82;21479;-76
2022/07/02 05:07:54;;;;;;;9.63;2.83;;;;;;;20.36;62.39;100052.08;1754908;81;21003;-76
2022/07/02 05:10:21;;;;;;;3.12;2.67;;;;;;;20.40;61.99;100038.38;1812957;78;20992;-75
2022/07/02 05:12:47;;;;;;;5.65;2.95;;;;;;;20.45;62.00;100039.91;1823203;78;21469;-77
2022/07/02 05:15:14;;;;;;;7.42;2.92;;;;;;;20.50;61.71;100037.78;1830399;78;21472;-77
2022/07/02 05:17:41;;;;;;;8.05;2.85;;;;;;;20.56;61.77;100036.00;1830441;77;21971;-76
2022/07/02 05:20:09;;;;;;;3.65;2.60;;;;;;;20.62;61.80;100031.59;1830409;78;21050;-76
2022/07/02 05:22:37;;;;;;;9.55;2.52;;;;;;;20.70;61.64;100035.97;1830584;78;21055;-76
2022/07/02 05:25:04;;;;;;;9.33;2.67;;;;;;;20.78;61.11;100039.47;1830548;78;21024;-76
2022/07/02 05:27:30;;;;;;;10.68;2.45;;;;;;;20.85;61.20;100034.55;1830635;78;21578;-76
2022/07/02 05:29:57;;;;;;;3.55;2.60;;;;;;;20.91;60.77;100044.80;1830415;78;21207;-76
2022/07/02 05:32:24;;;;;;;8.93;2.80;;;;;;;20.96;60.71;100042.66;1830560;78;21083;-76
2022/07/02 05:34:51;;;;;;;5.35;2.30;;;;;;;21.02;59.70;100036.89;1830619;77;21074;-76
2022/07/02 05:37:17;;;;;;;4.80;2.40;;;;;;;21.09;59.34;100038.66;1830193;77;21150;-76
2022/07/02 05:39:44;;;;;;;3.55;2.58;;;;;;;21.15;59.91;100046.27;1830539;77;21118;-76
2022/07/02 05:42:11;;;;;;;8.15;2.72;;;;;;;21.22;59.85;100042.67;1830388;78;21506;-77
2022/07/02 05:44:37;;;;;;;7.08;3.20;;;;;;;21.29;59.70;100039.93;1830652;78;21716;-76
2022/07/02 05:47:05;;;;;;;6.92;2.62;;;;;;;21.35;59.24;100043.52;1830422;77;23184;-76
2022/07/02 05:49:32;;;;;;;8.53;2.83;;;;;;;21.40;58.69;100049.40;1830272;77;21150;-76
2022/07/02 05:51:58;;;;;;;6.25;2.55;;;;;;;21.46;57.90;100045.41;1830475;78;20992;-76
2022/07/02 05:54:25;;;;;;;3.42;2.37;;;;;;;21.50;58.00;100042.45;1830195;78;21241;-76
2022/07/02 05:56:52;;;;;;;5.00;2.30;;;;;;;21.56;58.02;100048.33;1830549;77;21043;-76
2022/07/02 05:59:18;;;;;;;3.42;2.60;;;;;;;21.61;57.63;100047.52;1830224;78;21110;-76
2022/07/02 06:01:45;;;;;;;3.45;2.50;;;;;;;21.66;57.16;100047.54;1829958;77;21744;-76
2022/07/02 06:04:12;;;;;;;5.75;2.62;;;;;;;21.71;57.25;100057.44;1830263;78;21024;-76
2022/07/02 06:09:24;;;;;;;11.28;2.85;;;;;;;21.86;57.08;100068.86;1830464;77;21048;-76
2022/07/02 06:11:50;;;;;;;13.18;2.87;;;;;;;21.94;56.29;100070.11;1830378;77;21066;-77
2022/07/02 06:14:17;;;;;;;6.12;2.77;;;;;;;22.00;56.33;100074.53;1830350;78;21024;-75
2022/07/02 06:16:44;;;;;;;8.43;3.17;;;;;;;22.08;56.39;100073.98;1830727;77;20996;-76
2022/07/02 06:19:11;;;;;;;9.13;2.80;;;;;;;22.15;55.77;100072.55;1830793;77;21105;-76
2022/07/02 06:21:37;;;;;;;13.25;3.35;;;;;;;22.21;55.27;100071.27;1830559;77;21036;-76
2022/07/02 06:24:04;;;;;;;13.45;2.77;;;;;;;22.25;55.32;100073.58;1830400;77;21071;-76
2022/07/02 06:26:31;;;;;;;10.88;3.00;;;;;;;22.31;55.11;100078.14;1830496;78;20996;-76
2022/07/02 06:28:59;;;;;;;6.47;2.58;;;;;;;22.36;54.81;100079.98;1830729;78;21035;-76
2022/07/02 06:31:26;;;;;;;6.67;2.40;;;;;;;22.42;54.53;100082.22;1830696;77;21518;-76
2022/07/02 06:33:52;;;;;;;10.23;3.47;;;;;;;22.48;54.48;100081.77;1830496;78;21012;-76
2022/07/02 06:36:22;;;;;;;7.90;2.40;;;;;;;22.53;54.13;100084.11;1830388;78;21536;-76
2022/07/02 06:38:49;;;;;;;10.88;2.33;;;;;;;22.59;53.94;100091.20;1830835;78;21036;-76
2022/07/02 06:42:18;;;;;;;7.42;2.83;;;;;;;22.65;53.32;100098.42;1830950;78;21051;-76
2022/07/02 06:43:44;;;;;;;6.42;2.33;;;;;;;22.71;53.36;100092.56;1829878;78;21834;-76
2022/07/02 06:46:10;;;;;;;6.87;2.20;;;;;;;22.75;52.82;100091.37;1830653;77;21024;-76
2022/07/02 06:48:37;;;;;;;7.97;2.45;;;;;;;22.80;52.67;100091.38;1830719;78;21055;-76
2022/07/02 06:51:03;;;;;;;8.75;2.50;;;;;;;22.87;52.88;100087.74;1800765;78;21169;-76
2022/07/02 06:53:30;;;;;;;7.65;2.50;;;;;;;22.94;52.90;100091.66;1797981;79;21577;-76
2022/07/02 06:55:57;;;;;;;7.97;2.50;;;;;;;23.00;52.21;100091.19;1797916;79;21162;-76
2022/07/02 06:58:23;;;;;;;5.92;2.20;;;;;;;23.07;51.86;100084.05;1797708;79;21449;-76
2022/07/02 07:00:49;;;;;;;6.22;2.50;;;;;;;23.12;51.79;100088.56;1797683;79;21000;-76
2022/07/02 07:03:16;;;;;;;6.55;2.47;;;;;;;23.19;52.12;100097.84;1797815;79;21020;-76
2022/07/02 07:05:46;;;;;;;6.45;2.10;;;;;;;23.26;52.04;100096.38;1809529;78;21067;-76
2022/07/02 07:08:12;;;;;;;3.33;2.17;;;;;;;23.35;51.78;100096.14;1811275;78;22156;-76
2022/07/02 07:10:40;;;;;;;5.17;2.22;;;;;;;23.43;51.01;100093.70;1758969;81;21040;-76
2022/07/02 07:13:07;;;;;;;9.48;2.30;;;;;;;23.50;51.20;100096.76;1758521;80;21060;-76
2022/07/02 07:15:34;;;;;;;4.05;1.92;;;;;;;23.57;50.42;100088.59;1805515;78;21491;-76
2022/07/02 07:18:01;;;;;;;3.80;1.80;;;;;;;23.62;50.30;100094.45;1813479;78;21557;-76
2022/07/02 07:20:29;;;;;;;4.95;2.17;;;;;;;23.70;50.26;100094.70;1814079;78;21632;-76
2022/07/02 07:22:56;;;;;;;3.65;2.10;;;;;;;23.80;50.28;100098.81;1813501;79;20987;-76
2022/07/02 07:25:23;;;;;;;4.55;1.92;;;;;;;23.85;49.29;100092.61;1814019;78;22199;-75
2022/07/02 07:27:49;;;;;;;11.00;2.25;;;;;;;23.91;49.50;100092.13;1820483;78;21039;-76
2022/07/02 07:30:16;;;;;;;6.42;2.17;;;;;;;23.99;49.22;100097.35;1814027;79;21090;-76
2022/07/02 07:32:43;;;;;;;2.83;2.27;;;;;;;24.06;48.69;100098.58;1813970;79;21079;-76
2022/07/02 07:35:09;;;;;;;7.95;2.00;;;;;;;24.13;48.69;100100.28;1813411;79;21011;-76
2022/07/02 07:37:37;;;;;;;4.15;1.70;;;;;;;24.17;48.43;100099.88;1813628;79;20976;-76
2022/07/02 07:40:05;;;;;;;2.70;2.50;;;;;;;24.24;47.31;100094.84;1813876;78;20985;-76
2022/07/02 07:42:32;;;;;;;4.40;1.77;;;;;;;24.28;47.72;100096.32;1814274;78;21023;-76
2022/07/02 07:44:59;;;;;;;3.83;2.15;;;;;;;24.34;47.81;100095.79;1805179;79;21206;-76
2022/07/02 07:47:26;;;;;;;10.35;2.30;;;;;;;24.40;46.95;100103.36;1805328;78;21000;-77
2022/07/02 07:49:52;;;;;;;8.85;1.90;;;;;;;24.48;46.37;100104.92;1814210;79;21095;-76
2022/07/02 07:52:19;;;;;;;3.83;1.35;;;;;;;24.54;46.41;100104.88;1805292;79;20972;-76
2022/07/02 07:54:45;;;;;;;5.03;1.52;;;;;;;24.61;46.31;100101.22;1805491;78;21044;-75
2022/07/02 07:57:12;;;;;;;8.58;1.98;;;;;;;24.70;46.55;100103.16;1805059;79;21827;-76
2022/07/02 07:59:40;;;;;;;6.83;1.55;;;;;;;24.79;45.97;100106.39;1805083;79;21087;-76
2022/07/02 08:02:06;;;;;;;5.60;1.72;;;;;;;24.88;45.39;100101.22;1813908;78;21067;-76
2022/07/02 08:04:34;;;;;;;8.58;1.67;;;;;;;24.95;44.11;100102.39;1813948;79;20996;-76
2022/07/02 08:07:00;;;;;;;4.72;1.37;;;;;;;25.00;44.31;100105.57;1814093;78;21036;-76
2022/07/02 08:09:26;;;;;;;6.42;1.70;;;;;;;25.08;43.78;100115.66;1805428;79;21177;-76
2022/07/02 08:11:53;;;;;;;6.42;1.62;;;;;;;25.13;42.91;100111.61;1814343;78;21008;-76
2022/07/02 08:14:19;;;;;;;2.22;1.57;;;;;;;25.17;44.16;100109.50;1805068;78;21558;-76
2022/07/02 08:16:47;;;;;;;3.10;1.35;;;;;;;25.22;44.88;100105.91;1814331;78;21865;-76
2022/07/02 08:19:13;;;;;;;2.65;1.70;;;;;;;25.29;43.67;100104.42;1814380;79;21910;-76
2022/07/02 08:21:40;;;;;;;3.40;1.80;;;;;;;25.38;43.27;100116.22;1814076;79;21127;-76
2022/07/02 08:24:06;;;;;;;8.88;1.95;;;;;;;25.45;42.93;100120.58;1805599;77;21091;-75
2022/07/02 08:26:33;;;;;;;4.78;1.57;;;;;;;25.50;42.09;100116.52;1805231;79;21044;-75
2022/07/02 08:29:00;;;;;;;7.28;1.70;;;;;;;25.55;42.35;100108.00;1814494;78;21542;-76
2022/07/02 08:31:26;;;;;;;7.15;1.70;;;;;;;25.63;42.39;100110.03;1813882;79;21040;-76
2022/07/02 08:33:53;;;;;;;2.30;1.55;;;;;;;25.68;42.14;100115.87;1805407;79;21091;-76
2022/07/02 08:36:20;;;;;;;5.97;1.70;;;;;;;25.74;41.51;100119.38;1813805;78;21046;-77
2022/07/02 08:38:46;;;;;;;3.20;1.45;;;;;;;25.79;41.13;100125.21;1814294;79;21134;-76
2022/07/02 08:41:13;;;;;;;3.33;1.45;;;;;;;25.84;41.49;100120.27;1813555;79;21059;-76
2022/07/02 08:43:40;;;;;;;10.05;1.57;;;;;;;25.92;42.48;100120.43;1814573;79;21133;-76
2022/07/02 08:46:08;;;;;;;4.45;1.60;;;;;;;26.01;41.54;100121.95;1805202;78;21133;-76
2022/07/02 08:48:36;;;;;;;7.75;1.50;;;;;;;26.08;41.62;100119.08;1814380;77;21106;-76
2022/07/02 08:51:03;;;;;;;6.50;1.30;;;;;;;26.18;41.65;100115.91;1841529;77;21133;-76
2022/07/02 08:53:29;;;;;;;5.90;1.50;;;;;;;26.26;40.83;100118.77;1846099;77;22051;-76
2022/07/02 08:55:56;;;;;;;2.95;1.47;;;;;;;26.37;41.72;100119.63;1846454;77;21054;-76
2022/07/02 08:58:23;;;;;;;8.43;1.67;;;;;;;26.45;40.64;100117.08;1846317;77;21132;-76
2022/07/02 09:00:49;;;;;;;6.95;1.70;;;;;;;26.52;40.69;100123.60;1844582;77;21110;-76
2022/07/02 09:03:20;;;;;;;7.75;1.90;;;;;;;26.57;41.35;100125.37;1846104;77;21058;-76
2022/07/02 09:05:50;;;;;;;2.20;1.45;;;;;;;26.62;40.91;100122.27;1837318;78;21099;-76
2022/07/02 09:08:17;;;;;;;5.75;1.98;;;;;;;26.64;40.42;100119.80;1846058;77;21038;-76
2022/07/02 09:10:46;;;;;;;8.93;1.95;;;;;;;26.69;40.32;100113.98;1845465;77;21546;-76
2022/07/02 09:13:12;;;;;;;5.80;1.20;;;;;;;26.76;39.46;100114.26;1768692;80;21484;-76
2022/07/02 09:15:39;;;;;;;5.65;1.55;;;;;;;26.79;38.60;100115.33;1757886;80;21111;-76
2022/07/02 09:18:05;;;;;;;5.22;1.70;;;;;;;26.82;38.00;100123.14;1774207;80;21150;-76
2022/07/02 09:20:32;;;;;;;2.25;1.40;;;;;;;26.85;38.69;100121.52;1808030;79;21628;-76
2022/07/02 09:22:58;;;;;;;8.18;1.27;;;;;;;26.92;38.47;100117.74;1808517;79;21587;-76
2022/07/02 09:25:31;;;;;;;5.15;1.80;;;;;;;26.96;36.91;100121.34;1808573;79;21599;-76
2022/07/02 09:28:04;;;;;;;2.90;1.57;;;;;;;26.97;36.16;100119.00;1808267;79;20963;-76
2022/07/02 09:30:34;;;;;;;3.35;1.55;;;;;;;26.96;36.35;100113.23;1808583;79;21515;-76
2022/07/02 09:33:46;;;;;;;15.60;1.35;;;;;;;26.98;37.54;100124.77;1808416;79;21363;-75
2022/07/02 09:35:29;;;;;;;5.95;1.42;;;;;;;27.04;37.77;100120.62;1788860;79;21999;-76
2022/07/02 09:37:58;;;;;;;2.55;1.25;;;;;;;27.10;36.51;100115.13;1808265;79;21527;-76
2022/07/02 09:40:24;;;;;;;7.50;1.50;;;;;;;27.13;35.37;100114.34;1779959;79;21043;-75
2022/07/02 09:42:51;;;;;;;2.90;1.42;;;;;;;27.15;35.72;100115.55;1808746;79;21047;-76
2022/07/02 09:45:18;;;;;;;7.50;1.50;;;;;;;27.21;35.91;100116.33;1808651;79;21035;-76
2022/07/02 09:47:51;;;;;;;5.10;1.35;;;;;;;27.27;36.49;100121.63;1808853;79;21148;-76
2022/07/02 09:50:17;;;;;;;3.75;1.20;;;;;;;27.35;35.86;100114.55;1807042;79;21110;-76
2022/07/02 09:52:57;;;;;;;3.02;1.52;;;;;;;27.43;36.52;100112.45;1808679;79;20988;-77
2022/07/02 09:55:28;;;;;;;4.97;1.30;;;;;;;27.52;37.17;100112.05;1808435;79;21114;-76
2022/07/02 09:57:59;;;;;;;5.08;1.25;;;;;;;27.59;35.51;100106.43;1807648;79;21098;-76
2022/07/02 10:00:29;;;;;;;5.45;1.37;;;;;;;27.66;35.84;100100.77;1808177;79;21274;-76
2022/07/02 10:02:57;;;;;;;3.55;1.57;;;;;;;27.74;35.20;100103.58;1805865;79;21003;-76
2022/07/02 10:05:26;;;;;;;4.10;1.40;;;;;;;27.83;35.35;100107.73;1808893;79;21067;-76
2022/07/02 10:07:57;;;;;;;2.65;1.15;;;;;;;27.87;34.66;100113.18;1808510;79;21097;-76
2022/07/02 10:10:32;;;;;;;3.87;1.30;;;;;;;27.90;34.38;100111.53;1808986;79;20971;-76
2022/07/02 10:12:57;;;;;;;4.15;1.20;;;;;;;27.90;33.55;100106.13;1808536;79;21072;-77
2022/07/02 10:15:25;;;;;;;5.37;1.30;;;;;;;27.86;32.99;100104.23;1808275;79;21047;-76
2022/07/02 10:17:55;;;;;;;5.33;1.60;;;;;;;27.89;34.30;100105.77;1808361;79;21079;-76
2022/07/02 10:20:23;;;;;;;4.60;1.27;;;;;;;27.95;34.42;100109.26;1808517;79;20981;-76
2022/07/02 10:22:50;;;;;;;4.92;1.37;;;;;;;28.03;35.12;100105.81;1808768;79;21066;-76
2022/07/02 10:25:20;;;;;;;5.95;1.52;;;;;;;28.13;33.69;100108.79;1808318;79;21091;-76
2022/07/02 10:27:46;;;;;;;11.35;1.50;;;;;;;28.20;33.26;100108.19;1808839;79;21090;-76
2022/07/02 10:30:17;;;;;;;10.75;1.50;;;;;;;28.23;32.43;100105.19;1808486;79;21126;-76
2022/07/02 10:33:28;;;;;;;4.10;1.12;;;;;;;28.20;31.75;100102.27;1808383;79;21561;-76
2022/07/02 10:35:55;;;;;;;3.27;1.40;;;;;;;28.17;31.94;100110.17;1808657;79;21099;-75
2022/07/02 10:38:32;;;;;;;5.75;1.40;;;;;;;28.17;31.44;100105.27;1781672;79;21070;-75
2022/07/02 10:40:58;;;;;;;3.55;1.42;;;;;;;28.20;32.63;100106.84;1808438;79;21573;-76
2022/07/02 10:43:29;;;;;;;1.98;1.45;;;;;;;28.28;33.13;100107.77;1808593;79;21106;-76
2022/07/02 10:46:06;;;;;;;7.08;1.67;;;;;;;28.39;32.87;100098.56;1808404;78;21055;-76
2022/07/02 10:48:48;;;;;;;2.27;1.12;;;;;;;28.46;32.64;100105.08;1836944;78;21118;-76
2022/07/02 10:51:19;;;;;;;6.62;1.30;;;;;;;28.51;32.25;100101.88;1838210;78;21549;-76
2022/07/02 10:53:50;;;;;;;2.20;1.27;;;;;;;28.57;31.11;100100.47;1831940;77;21046;-76
2022/07/02 10:56:17;;;;;;;5.35;1.20;;;;;;;28.63;31.09;100095.28;1838184;78;20960;-76
2022/07/02 10:58:43;;;;;;;4.90;1.20;;;;;;;28.72;32.77;100092.13;1838041;78;21047;-76
2022/07/02 11:01:16;;;;;;;2.27;1.10;;;;;;;28.80;33.16;100087.27;1838388;78;21027;-76
2022/07/02 11:03:58;;;;;;;3.62;1.05;;;;;;;28.88;32.28;100076.02;1769207;81;22256;-77
2022/07/02 11:06:30;;;;;;;5.22;1.70;;;;;;;28.96;31.94;100076.56;1838330;78;21027;-76
2022/07/02 11:09:05;;;;;;;7.53;1.52;;;;;;;29.07;33.00;100080.88;1838404;78;20987;-76
2022/07/02 11:11:40;;;;;;;4.78;1.40;;;;;;;29.18;32.27;100076.56;1838417;78;21047;-76
2022/07/02 11:14:17;;;;;;;6.97;1.40;;;;;;;29.20;31.11;100061.02;1827781;77;21138;-76
2022/07/02 11:16:48;;;;;;;3.60;1.30;;;;;;;29.25;31.62;100065.45;1767638;79;21531;-76
2022/07/02 11:19:24;;;;;;;3.33;1.27;;;;;;;29.28;30.63;100065.62;1766296;81;21026;-76
2022/07/02 11:21:53;;;;;;;4.40;1.20;;;;;;;29.29;29.90;100068.68;1767143;81;21027;-77
2022/07/02 11:24:23;;;;;;;3.27;1.30;;;;;;;29.27;30.04;100061.23;1766790;81;21043;-77
2022/07/02 11:26:49;;;;;;;6.95;1.15;;;;;;;29.26;29.76;100060.35;1767116;81;21090;-76
2022/07/02 11:29:16;;;;;;;4.95;1.10;;;;;;;29.24;29.62;100054.25;1766808;81;21124;-77
2022/07/02 11:31:46;;;;;;;4.25;1.10;;;;;;;29.24;29.46;100057.48;1766640;81;21545;-77
2022/07/02 11:34:20;;;;;;;5.72;1.32;;;;;;;29.23;28.79;100056.61;1767187;81;21677;-76